Aeroporto :
LOGIN :

Iscrizione | Disclaimer

   EN    FR    IT 

 










Sommario :    VFR   VFR Marginale   IFR   IFR Intensivo   IFR Molto Intensivo
Visibilità : 
Base nubi : 
>= 8 km
>= 3000ft
5 / 8 km
1000 / 3000 ft
1500m / 5 km
500 / 1000 ft
800 / 1500m
200 / 500 ft
< 800m
< 200 ft
Simboli :   Temporali  Nebbia  Neve Forte  Precipitazioni Forti  Vento > 20 kt
SIGMETs :   Varie  Temporali  Ghiacco  Turbolenza  Onda orograficha  Ceneri Vulcaniche






- Altitudine del aeroporto : 776 ft
- Codice IATA : RMS


ETAR - Ramstein Air Base

ULTIMO METAR :
  • 122056Z AUTO 00000KT 9999 CLR 17/14 A3022 RMK AO2 SLP228 T01670140 52017 FZRANO $

METARs OBSOLETI :
  • 121956Z AUTO 32005KT 9999 CLR 19/14 A3020 RMK AO2 SLP222 T01910143 FZRANO $
  • 121856Z AUTO 31008KT 9999 CLR 21/15 A3019 RMK AO2 SLP218 T02130149 FZRANO $

TAF TAF ETAR
Valido dal 12 a 18 ore il 14 a 00 ore UTC


121800Z 1218/1324 32006KT 9999 SCT050 QNH3010INS
BECMG 1306/1307 02009KT 9999 FEW030 QNH3032INS TX28/1314Z TN12/1304Z



MetMap, La meteo Aeronautica in un colpo d'occhio ! - Copyright ORBIFLY Dicembre 2007 - Disclaimer

ORBIFLY MET'MAP TEAM :

Programmazione e sviluppo : Alexandra Zaïnal
Concezione : Baudouin d'Aumeries
Aiuto per la programmazione : Marc-Olivier Méhu
Supporto tecnico e logistico : Manuel Goepfert
Aiuto per la traduzione : Arnaldo La Scala

Contatto : metmap@orbifly.com




FONTI E CREDITI :

   NOAA